Time;durP1;ratioP1;P1;durP2;ratioP2;P2;SDS_P1;SDS_P2;PMS_P1;PMS_P2;Temp;Humidity;BMP_temperature;BMP_pressure;BME280_temperature;BME280_humidity;BME280_pressure;Samples;Min_cycle;Max_cycle;Signal;HPM_P1;HPM_P2
2022/12/13 00:01:53;;;;;;;36.45;20.45;;;;;;;1.55;78.04;100512.34;1697045;84;25714;-65
2022/12/13 00:04:23;;;;;;;41.13;22.20;;;;;;;1.52;78.10;100522.64;1697798;82;27501;-64
2022/12/13 00:06:52;;;;;;;38.75;20.30;;;;;;;1.54;78.33;100524.75;1696447;84;25754;-64
2022/12/13 00:09:20;;;;;;;41.05;24.37;;;;;;;1.58;78.54;100523.23;1697047;84;25742;-64
2022/12/13 00:11:48;;;;;;;41.58;22.95;;;;;;;1.65;78.75;100526.80;1697261;83;25724;-65
2022/12/13 00:14:16;;;;;;;37.13;20.97;;;;;;;1.72;78.88;100518.88;1697816;82;26458;-64
2022/12/13 00:16:47;;;;;;;41.20;23.45;;;;;;;1.78;78.71;100525.65;1696913;83;27495;-64
2022/12/13 00:19:16;;;;;;;41.75;23.73;;;;;;;1.79;78.42;100518.08;1696967;84;25726;-64
2022/12/13 00:21:44;;;;;;;48.20;23.83;;;;;;;1.79;78.53;100512.77;1697049;84;25741;-64
2022/12/13 00:24:10;;;;;;;40.67;22.90;;;;;;;1.82;78.63;100521.02;1697308;82;25887;-64
2022/12/13 00:26:38;;;;;;;42.20;22.70;;;;;;;1.81;78.54;100525.94;1697426;84;25721;-65
2022/12/13 00:29:07;;;;;;;44.33;22.67;;;;;;;1.81;78.40;100526.81;1696974;84;27430;-64
2022/12/13 00:31:34;;;;;;;41.58;23.95;;;;;;;1.81;78.57;100530.80;1696630;83;25977;-64
2022/12/13 00:34:01;;;;;;;47.75;25.23;;;;;;;1.80;78.71;100534.83;1715161;81;25804;-64
2022/12/13 00:36:28;;;;;;;41.33;23.32;;;;;;;1.82;78.90;100538.27;1713649;82;26632;-64
2022/12/13 00:38:59;;;;;;;32.45;18.92;;;;;;;1.69;77.72;100538.09;1714491;82;44160;-64
2022/12/13 00:41:46;;;;;;;32.45;18.45;;;;;;;1.41;75.41;100526.34;1714349;83;25708;-63
2022/12/13 00:44:13;;;;;;;36.15;20.00;;;;;;;1.24;75.65;100535.22;1717202;81;25728;-64
2022/12/13 00:46:41;;;;;;;39.85;21.95;;;;;;;1.11;75.77;100535.47;1745382;81;25677;-63
2022/12/13 00:49:11;;;;;;;34.85;18.98;;;;;;;0.97;75.95;100528.25;1745839;82;25890;-64
2022/12/13 00:51:39;;;;;;;36.60;19.02;;;;;;;0.87;76.14;100527.89;1745705;80;25735;-64
2022/12/13 00:54:06;;;;;;;41.53;19.92;;;;;;;0.77;76.07;100520.42;1740736;80;27625;-64
2022/12/13 00:56:34;;;;;;;37.08;19.45;;;;;;;0.75;76.17;100508.20;1763874;80;25768;-64
2022/12/13 00:59:01;;;;;;;34.50;19.23;;;;;;;0.76;76.28;100509.92;1742680;81;25741;-65
2022/12/13 01:01:32;;;;;;;37.03;19.12;;;;;;;0.82;76.63;100512.69;1763944;81;25776;-64
2022/12/13 01:04:03;;;;;;;27.65;16.80;;;;;;;0.84;76.32;100519.64;1727724;81;25792;-64
2022/12/13 01:06:43;;;;;;;29.20;16.97;;;;;;;0.83;75.74;100523.67;1714511;82;27436;-64
2022/12/13 01:09:17;;;;;;;33.70;17.67;;;;;;;0.80;75.42;100532.64;1713860;83;25816;-64
2022/12/13 01:12:05;;;;;;;27.13;16.42;;;;;;;0.72;74.85;100524.23;1714089;83;25724;-64
2022/12/13 01:14:51;;;;;;;35.40;18.20;;;;;;;0.65;74.70;100526.34;1691912;83;25775;-63
2022/12/13 01:17:18;;;;;;;39.83;20.62;;;;;;;0.62;74.80;100530.48;1679380;85;25801;-64
2022/12/13 01:19:45;;;;;;;37.90;20.43;;;;;;;0.52;74.63;100527.43;1678970;85;27492;-64
2022/12/13 01:22:12;;;;;;;38.20;20.55;;;;;;;0.46;74.91;100527.27;1691964;84;25840;-64
2022/12/13 01:24:57;;;;;;;42.43;21.48;;;;;;;0.38;74.86;100518.86;1691804;84;25805;-63
2022/12/13 01:27:24;;;;;;;37.15;20.17;;;;;;;0.34;75.04;100523.94;1691688;84;25926;-63
2022/12/13 01:29:51;;;;;;;38.60;20.30;;;;;;;0.37;75.36;100526.89;1691902;83;25463;-63
2022/12/13 01:32:17;;;;;;;32.35;18.25;;;;;;;0.38;75.18;100524.63;1692094;81;28257;-63
2022/12/13 01:34:44;;;;;;;33.92;18.00;;;;;;;0.34;74.62;100536.30;1731466;81;25794;-63
2022/12/13 01:37:11;;;;;;;36.50;17.85;;;;;;;0.24;74.20;100539.39;1716366;82;25816;-63
2022/12/13 01:39:38;;;;;;;30.23;16.10;;;;;;;0.23;74.65;100546.94;1678433;83;25800;-63
2022/12/13 01:42:05;;;;;;;31.60;17.48;;;;;;;0.25;74.37;100549.05;1673873;84;26063;-63
2022/12/13 01:45:01;;;;;;;26.05;15.60;;;;;;;0.23;74.49;100559.32;1708773;83;27690;-63
2022/12/13 01:47:41;;;;;;;29.30;16.45;;;;;;;0.23;74.19;100563.29;1712402;83;25775;-64
2022/12/13 01:50:22;;;;;;;27.73;16.12;;;;;;;0.22;73.81;100573.48;1712119;83;25739;-63
2022/12/13 01:53:10;;;;;;;31.70;17.57;;;;;;;0.16;73.44;100569.34;1711544;81;25744;-63
2022/12/13 01:55:39;;;;;;;29.40;15.78;;;;;;;0.12;73.09;100567.30;1714409;83;26055;-63
2022/12/13 01:58:06;;;;;;;26.40;15.00;;;;;;;0.12;73.01;100565.14;1763950;81;28435;-64
2022/12/13 02:00:35;;;;;;;29.45;15.58;;;;;;;0.14;73.17;100566.77;1763994;80;25850;-63
2022/12/13 02:03:04;;;;;;;28.38;16.75;;;;;;;0.13;72.97;100573.00;1751120;80;26502;-63
2022/12/13 02:05:41;;;;;;;29.45;17.07;;;;;;;0.20;73.42;100576.20;1691842;83;26766;-64
2022/12/13 02:08:10;;;;;;;27.70;14.98;;;;;;;0.29;73.70;100577.08;1714159;82;25737;-63
2022/12/13 02:10:39;;;;;;;29.07;16.37;;;;;;;0.34;73.32;100589.22;1690804;83;27469;-64
2022/12/13 02:13:05;;;;;;;29.18;15.40;;;;;;;0.29;72.17;100593.41;1715070;81;25930;-63
2022/12/13 02:16:11;;;;;;;29.45;16.07;;;;;;;0.21;72.28;100588.95;1719607;80;25496;-63
2022/12/13 02:18:52;;;;;;;28.95;16.17;;;;;;;0.09;72.04;100595.70;1716081;82;25690;-63
2022/12/13 02:21:39;;;;;;;31.70;16.82;;;;;;;-0.04;72.13;100596.27;1715828;83;26225;-63
2022/12/13 02:24:38;;;;;;;27.73;16.37;;;;;;;-0.19;72.03;100596.55;1733847;80;27571;-63
2022/12/13 02:27:44;;;;;;;31.52;16.90;;;;;;;-0.29;72.13;100604.95;1745517;82;25709;-63
2022/12/13 02:30:29;;;;;;;26.62;16.20;;;;;;;-0.33;72.60;100602.92;1745275;81;25752;-63
2022/12/13 02:33:04;;;;;;;35.35;17.12;;;;;;;-0.32;72.67;100609.92;1739508;81;26627;-64
2022/12/13 02:35:45;;;;;;;29.40;17.87;;;;;;;-0.36;72.49;100618.46;1727288;82;25732;-63
2022/12/13 02:38:43;;;;;;;35.28;18.57;;;;;;;-0.34;72.79;100615.74;1727602;83;27325;-63
2022/12/13 02:41:27;;;;;;;32.35;17.57;;;;;;;-0.32;72.92;100624.47;1727376;82;25919;-63
2022/12/13 02:43:58;;;;;;;33.35;18.52;;;;;;;-0.28;72.70;100618.57;1726830;82;25780;-63
2022/12/13 02:46:28;;;;;;;32.48;19.07;;;;;;;-0.25;72.96;100625.05;1727863;83;25761;-63
2022/12/13 02:48:58;;;;;;;31.17;17.65;;;;;;;-0.25;72.96;100610.52;1727775;82;25685;-63
2022/12/13 02:51:26;;;;;;;30.57;17.87;;;;;;;-0.26;72.71;100613.60;1727724;83;27414;-64
2022/12/13 02:53:53;;;;;;;33.35;17.70;;;;;;;-0.28;72.66;100614.61;1713414;82;25793;-63
2022/12/13 02:56:21;;;;;;;31.73;16.90;;;;;;;-0.34;72.54;100618.38;1697079;84;25518;-64
2022/12/13 02:58:51;;;;;;;34.40;17.15;;;;;;;-0.39;72.32;100625.20;1697019;83;27971;-63
2022/12/13 03:01:35;;;;;;;34.63;18.80;;;;;;;-0.46;72.15;100616.31;1697147;83;25813;-63
2022/12/13 03:04:26;;;;;;;32.63;18.07;;;;;;;-0.44;72.49;100628.97;1697680;82;27536;-63
2022/12/13 03:07:27;;;;;;;30.62;17.48;;;;;;;-0.43;72.43;100630.25;1697074;83;25943;-63
2022/12/13 03:10:01;;;;;;;31.33;18.57;;;;;;;-0.41;72.85;100624.44;1696728;83;25857;-63
2022/12/13 03:16:00;;;;;;;30.77;17.00;;;;;;;-0.35;72.98;100626.80;1697036;84;26215;-63
2022/12/13 03:18:29;;;;;;;32.40;17.27;;;;;;;-0.40;72.64;100619.99;1697543;83;28135;-63
2022/12/13 03:21:00;;;;;;;31.93;17.15;;;;;;;-0.44;72.68;100621.92;1697114;84;25916;-63
2022/12/13 03:23:27;;;;;;;32.13;17.17;;;;;;;-0.44;72.90;100619.28;1697772;82;25767;-64
2022/12/13 03:26:17;;;;;;;32.28;17.48;;;;;;;-0.41;73.04;100619.16;1697192;84;25967;-64
2022/12/13 03:28:44;;;;;;;32.48;16.82;;;;;;;-0.40;72.92;100616.87;1697265;83;25825;-63
2022/12/13 03:31:12;;;;;;;30.35;17.05;;;;;;;-0.41;73.05;100615.19;1697496;82;27502;-63
2022/12/13 03:33:39;;;;;;;35.50;18.30;;;;;;;-0.42;72.96;100618.75;1698451;81;25730;-63
2022/12/13 03:36:07;;;;;;;33.78;18.82;;;;;;;-0.46;72.95;100622.92;1745945;81;25791;-63
2022/12/13 03:38:35;;;;;;;29.98;16.35;;;;;;;-0.50;72.85;100628.81;1745928;82;25760;-63
2022/12/13 03:41:10;;;;;;;30.85;17.27;;;;;;;-0.50;72.92;100620.89;1746075;80;26045;-63
2022/12/13 03:43:39;;;;;;;31.45;18.12;;;;;;;-0.54;72.79;100621.45;1732964;81;27477;-63
2022/12/13 03:46:07;;;;;;;29.00;16.40;;;;;;;-0.59;72.69;100617.33;1690686;84;25734;-63
2022/12/13 03:48:34;;;;;;;34.35;17.62;;;;;;;-0.62;72.84;100618.78;1680765;83;25733;-63
2022/12/13 03:51:02;;;;;;;36.30;19.23;;;;;;;-0.66;72.64;100616.74;1716619;82;26702;-63
2022/12/13 03:53:30;;;;;;;35.63;18.45;;;;;;;-0.71;72.79;100616.94;1723824;80;25749;-63
2022/12/13 03:55:57;;;;;;;37.30;18.73;;;;;;;-0.76;72.83;100614.95;1764241;81;27426;-63
2022/12/13 03:58:24;;;;;;;37.60;19.77;;;;;;;-0.82;72.90;100616.55;1763962;81;25660;-63
2022/12/13 04:00:50;;;;;;;35.52;19.92;;;;;;;-0.90;73.05;100608.98;1764316;81;25735;-63
2022/12/13 04:03:17;;;;;;;36.30;19.85;;;;;;;-0.93;73.24;100614.83;1722091;80;25790;-63
2022/12/13 04:05:44;;;;;;;28.42;16.82;;;;;;;-0.99;73.45;100612.86;1713406;82;25714;-63
2022/12/13 04:08:11;;;;;;;30.55;16.42;;;;;;;-1.03;73.27;100610.41;1714638;83;27611;-64
2022/12/13 04:10:38;;;;;;;36.48;18.95;;;;;;;-1.10;72.87;100615.09;1714156;82;26125;-63
2022/12/13 04:15:51;;;;;;;33.92;18.12;;;;;;;-1.19;73.08;100626.92;1714548;82;25793;-63
2022/12/13 04:18:19;;;;;;;35.00;18.62;;;;;;;-1.20;73.17;100629.59;1714470;83;25468;-64
2022/12/13 04:20:47;;;;;;;33.48;18.10;;;;;;;-1.18;73.35;100625.12;1714159;82;27623;-63
2022/12/13 04:23:14;;;;;;;32.98;16.90;;;;;;;-1.14;73.53;100624.08;1714132;81;25481;-63
2022/12/13 04:25:43;;;;;;;32.95;17.15;;;;;;;-1.15;73.07;100627.64;1713777;82;25713;-63
2022/12/13 04:28:10;;;;;;;35.63;19.10;;;;;;;-1.16;73.17;100623.28;1713677;83;25691;-63
2022/12/13 04:30:37;;;;;;;45.95;23.45;;;;;;;-1.12;73.41;100617.81;1712502;81;26210;-63
2022/12/13 04:33:05;;;;;;;41.37;20.52;;;;;;;-1.10;73.45;100617.73;1713824;82;27482;-63
2022/12/13 04:35:32;;;;;;;34.13;17.98;;;;;;;-1.10;73.18;100620.37;1727547;80;25515;-63
2022/12/13 04:37:58;;;;;;;36.90;18.55;;;;;;;-1.14;72.97;100622.77;1745774;82;25775;-63
2022/12/13 04:40:25;;;;;;;33.48;19.27;;;;;;;-1.19;72.80;100623.41;1745836;82;25851;-63
2022/12/13 04:42:53;;;;;;;28.77;15.53;;;;;;;-1.21;73.01;100621.31;1745179;80;25806;-63
2022/12/13 04:45:21;;;;;;;30.32;16.65;;;;;;;-1.27;72.71;100621.95;1745649;82;27458;-63
2022/12/13 04:47:49;;;;;;;30.55;17.40;;;;;;;-1.33;72.63;100618.70;1745606;82;25500;-63
2022/12/13 04:50:16;;;;;;;35.00;18.05;;;;;;;-1.35;72.81;100612.65;1745868;80;25924;-63
2022/12/13 04:52:43;;;;;;;28.62;16.75;;;;;;;-1.39;72.77;100632.16;1729419;81;26163;-63
2022/12/13 04:55:12;;;;;;;35.92;19.00;;;;;;;-1.39;72.93;100626.87;1721260;82;25804;-63
2022/12/13 04:57:39;;;;;;;37.83;19.25;;;;;;;-1.39;73.27;100631.67;1716605;83;27510;-63
2022/12/13 05:00:10;;;;;;;35.92;18.12;;;;;;;-1.34;73.59;100635.45;1717089;83;25467;-63
2022/12/13 05:02:37;;;;;;;34.83;18.48;;;;;;;-1.31;73.63;100634.02;1716244;81;25779;-63
2022/12/13 05:05:06;;;;;;;31.42;16.67;;;;;;;-1.28;73.81;100635.22;1714518;83;26367;-63
2022/12/13 05:07:32;;;;;;;33.45;17.25;;;;;;;-1.29;73.81;100638.30;1714208;83;25780;-63
2022/12/13 05:09:59;;;;;;;34.03;17.77;;;;;;;-1.29;73.83;100629.53;1714246;82;27317;-63
2022/12/13 05:12:26;;;;;;;37.85;20.05;;;;;;;-1.31;73.75;100627.42;1713200;81;25686;-63
2022/12/13 05:14:53;;;;;;;36.55;19.20;;;;;;;-1.35;73.62;100629.80;1717537;82;25773;-63
2022/12/13 05:17:21;;;;;;;41.18;22.27;;;;;;;-1.42;73.36;100636.63;1712396;82;25751;-64
2022/12/13 05:19:47;;;;;;;32.23;20.17;;;;;;;-1.45;73.49;100633.26;1720195;82;25825;-65
2022/12/13 05:22:16;;;;;;;33.95;19.50;;;;;;;-1.47;73.79;100636.41;1704389;83;27558;-63
2022/12/13 05:24:44;;;;;;;34.30;19.12;;;;;;;-1.48;73.97;100637.36;1702595;83;25823;-63
2022/12/13 05:27:11;;;;;;;33.30;18.48;;;;;;;-1.52;73.77;100639.71;1701533;83;25693;-64
2022/12/13 05:29:38;;;;;;;36.65;19.48;;;;;;;-1.57;73.52;100643.38;1708877;83;25796;-63
2022/12/13 05:32:05;;;;;;;39.67;21.33;;;;;;;-1.62;73.54;100653.75;1704204;83;27253;-63
2022/12/13 05:34:32;;;;;;;39.95;19.87;;;;;;;-1.62;74.01;100644.04;1696099;83;27638;-64
2022/12/13 05:37:00;;;;;;;38.28;19.65;;;;;;;-1.60;73.83;100653.20;1684090;84;25746;-63
2022/12/13 05:39:27;;;;;;;40.90;21.65;;;;;;;-1.61;73.90;100657.63;1745251;81;25726;-63
2022/12/13 05:41:56;;;;;;;38.17;20.68;;;;;;;-1.59;73.98;100657.56;1745652;82;27973;-63
2022/12/13 05:44:23;;;;;;;47.17;23.05;;;;;;;-1.60;73.82;100651.44;1744057;80;26167;-64
2022/12/13 05:46:50;;;;;;;47.48;24.18;;;;;;;-1.56;74.18;100650.85;1745790;80;27472;-64
2022/12/13 05:49:16;;;;;;;41.42;21.52;;;;;;;-1.54;74.16;100652.10;1745041;81;25723;-63
2022/12/13 05:51:43;;;;;;;39.40;18.67;;;;;;;-1.55;74.05;100655.22;1746154;81;25795;-63
2022/12/13 05:54:10;;;;;;;42.10;21.87;;;;;;;-1.54;74.09;100660.89;1727065;81;25871;-63
2022/12/13 05:56:37;;;;;;;37.48;19.98;;;;;;;-1.52;74.03;100658.18;1716715;82;26007;-63
2022/12/13 05:59:04;;;;;;;28.10;16.45;;;;;;;-1.53;73.86;100659.09;1741991;81;27729;-63
2022/12/13 06:01:31;;;;;;;30.68;16.55;;;;;;;-1.51;74.02;100651.52;1745835;82;25530;-63
2022/12/13 06:03:58;;;;;;;32.75;16.45;;;;;;;-1.48;74.16;100667.70;1719456;82;25781;-64
2022/12/13 06:06:25;;;;;;;31.40;17.82;;;;;;;-1.49;73.99;100665.98;1720950;80;25952;-63
2022/12/13 06:08:52;;;;;;;31.00;16.15;;;;;;;-1.55;73.66;100667.09;1730046;81;25852;-63
2022/12/13 06:11:18;;;;;;;30.52;17.60;;;;;;;-1.54;73.95;100666.17;1740201;80;27677;-64
2022/12/13 06:13:49;;;;;;;27.55;16.90;;;;;;;-1.55;73.83;100667.53;1744060;81;25844;-64
2022/12/13 06:16:16;;;;;;;36.73;17.90;;;;;;;-1.57;73.85;100662.32;1745960;82;25849;-64
2022/12/13 06:18:43;;;;;;;32.55;16.60;;;;;;;-1.58;73.81;100667.20;1745800;82;26824;-63
2022/12/13 06:21:10;;;;;;;33.20;16.60;;;;;;;-1.57;73.91;100667.59;1739924;82;25723;-64
2022/12/13 06:23:36;;;;;;;27.42;16.27;;;;;;;-1.56;73.92;100669.32;1721972;81;27436;-64
2022/12/13 06:26:06;;;;;;;32.65;17.37;;;;;;;-1.55;73.94;100664.89;1714704;83;26513;-64
2022/12/13 06:28:33;;;;;;;30.50;16.73;;;;;;;-1.58;73.97;100668.08;1716064;81;25765;-64
2022/12/13 06:31:04;;;;;;;30.40;16.30;;;;;;;-1.54;73.97;100672.77;1722738;81;26435;-64
2022/12/13 06:33:34;;;;;;;30.82;16.37;;;;;;;-1.52;73.88;100676.17;1713269;81;25841;-64
2022/12/13 06:36:00;;;;;;;32.63;17.52;;;;;;;-1.53;73.60;100677.13;1702113;82;28451;-64
2022/12/13 06:38:26;;;;;;;34.38;18.00;;;;;;;-1.53;73.59;100678.44;1706898;82;25740;-63
2022/12/13 06:40:53;;;;;;;33.15;18.77;;;;;;;-1.50;73.53;100683.58;1715732;82;25598;-64
2022/12/13 06:43:20;;;;;;;33.30;17.67;;;;;;;-1.49;73.41;100677.86;1696874;82;25817;-64
2022/12/13 06:45:47;;;;;;;30.82;15.68;;;;;;;-1.42;73.73;100684.60;1699994;83;26048;-64
2022/12/13 06:48:14;;;;;;;31.52;15.85;;;;;;;-1.37;73.00;100685.27;1703331;82;27488;-65
2022/12/13 06:50:41;;;;;;;36.28;16.70;;;;;;;-1.34;72.94;100682.52;1673671;84;25845;-66
2022/12/13 06:53:08;;;;;;;23.20;12.55;;;;;;;-1.27;72.96;100692.37;1657801;85;25718;-66
2022/12/13 06:55:35;;;;;;;28.85;16.27;;;;;;;-1.17;72.77;100689.75;1681427;84;28016;-66
2022/12/13 06:58:02;;;;;;;28.50;13.15;;;;;;;-1.08;72.72;100696.89;1689523;82;25978;-64
2022/12/13 07:00:30;;;;;;;29.30;14.35;;;;;;;-1.05;71.91;100689.70;1676877;84;27519;-65
2022/12/13 07:02:57;;;;;;;31.12;15.03;;;;;;;-1.12;70.22;100697.01;1704260;82;25536;-66
2022/12/13 07:05:26;;;;;;;27.00;14.53;;;;;;;-1.07;70.99;100700.78;1724167;82;25797;-66
2022/12/13 07:07:53;;;;;;;30.60;15.35;;;;;;;-1.11;68.32;100700.05;1711319;82;25958;-65
2022/12/13 07:10:20;;;;;;;29.95;14.10;;;;;;;-1.25;66.90;100701.05;1715528;82;25768;-65
2022/12/13 07:12:47;;;;;;;33.50;14.40;;;;;;;-1.30;66.93;100698.60;1707687;83;27547;-65
2022/12/13 07:15:15;;;;;;;28.07;14.23;;;;;;;-1.31;66.99;100700.00;1707247;83;25972;-65
2022/12/13 07:17:41;;;;;;;31.35;16.05;;;;;;;-1.32;66.59;100705.75;1702481;82;25707;-65
2022/12/13 07:20:12;;;;;;;30.15;14.47;;;;;;;-1.34;65.75;100705.39;1696612;83;27910;-65
2022/12/13 07:22:39;;;;;;;36.68;14.35;;;;;;;-1.37;65.77;100712.13;1730794;82;25693;-65
2022/12/13 07:25:07;;;;;;;30.95;14.28;;;;;;;-1.27;67.02;100713.48;1734497;82;27466;-65
2022/12/13 07:27:34;;;;;;;33.90;13.18;;;;;;;-1.16;67.19;100706.44;1718491;82;25915;-64
2022/12/13 07:30:03;;;;;;;25.70;12.98;;;;;;;-1.01;67.74;100705.80;1696616;83;25796;-64
2022/12/13 07:32:30;;;;;;;35.40;15.78;;;;;;;-0.83;67.98;100713.88;1733415;82;25953;-65
2022/12/13 07:34:57;;;;;;;27.17;13.30;;;;;;;-0.73;67.51;100716.53;1710460;82;25956;-65
2022/12/13 07:37:24;;;;;;;31.02;14.07;;;;;;;-0.59;66.46;100715.09;1672698;84;27625;-65
2022/12/13 07:39:50;;;;;;;46.28;18.80;;;;;;;-0.55;65.03;100721.50;1714186;83;25505;-65
2022/12/13 07:42:17;;;;;;;23.83;12.15;;;;;;;-0.60;63.70;100734.04;1714769;82;25734;-65
2022/12/13 07:44:44;;;;;;;25.85;12.55;;;;;;;-0.60;62.81;100735.36;1714070;82;25975;-65
2022/12/13 07:47:11;;;;;;;24.07;12.55;;;;;;;-0.65;61.78;100738.20;1711731;83;25823;-65
2022/12/13 07:49:39;;;;;;;24.32;11.80;;;;;;;-0.64;61.60;100737.27;1724087;82;27645;-64
2022/12/13 07:52:11;;;;;;;32.30;13.93;;;;;;;-0.65;60.89;100739.52;1704991;81;25756;-65
2022/12/13 07:54:38;;;;;;;30.02;14.87;;;;;;;-0.60;60.62;100749.05;1716685;82;25803;-65
2022/12/13 07:57:04;;;;;;;39.83;15.08;;;;;;;-0.45;60.92;100747.06;1711319;83;25980;-65
2022/12/13 07:59:31;;;;;;;33.02;14.20;;;;;;;-0.25;60.96;100750.62;1705100;82;25696;-65
2022/12/13 08:01:58;;;;;;;26.05;12.95;;;;;;;-0.09;60.02;100758.75;1699788;84;27515;-65
2022/12/13 08:04:25;;;;;;;26.12;13.38;;;;;;;0.08;58.88;100759.30;1699936;83;25709;-65
2022/12/13 08:06:52;;;;;;;35.58;15.93;;;;;;;0.20;58.95;100763.17;1704832;82;25808;-65
2022/12/13 08:09:19;;;;;;;30.50;14.05;;;;;;;0.32;59.38;100756.01;1732547;82;25925;-65
2022/12/13 08:11:46;;;;;;;28.83;12.93;;;;;;;0.40;58.39;100768.90;1717929;81;25739;-65
2022/12/13 08:14:13;;;;;;;19.25;10.08;;;;;;;0.37;58.24;100772.52;1696864;84;27481;-65
2022/12/13 08:16:41;;;;;;;24.05;12.63;;;;;;;0.46;56.98;100766.80;1696858;84;25778;-65
2022/12/13 08:19:09;;;;;;;24.40;12.50;;;;;;;0.51;57.18;100763.94;1725077;82;25924;-65
2022/12/13 08:21:38;;;;;;;27.77;13.72;;;;;;;0.38;57.24;100761.48;1707852;83;26508;-64
2022/12/13 08:24:06;;;;;;;36.10;13.70;;;;;;;0.18;57.49;100763.73;1707880;83;25714;-65
2022/12/13 08:26:33;;;;;;;22.98;11.63;;;;;;;0.10;58.67;100766.72;1707777;82;28508;-65
2022/12/13 08:29:00;;;;;;;25.92;12.47;;;;;;;0.04;57.60;100761.23;1707408;84;25829;-64
2022/12/13 08:31:28;;;;;;;20.65;10.00;;;;;;;-0.06;57.45;100761.23;1708029;82;25809;-65
2022/12/13 08:33:55;;;;;;;28.17;12.15;;;;;;;0.01;56.86;100763.16;1714707;82;25799;-64
2022/12/13 08:36:23;;;;;;;25.10;12.23;;;;;;;0.37;56.99;100767.23;1721437;83;25775;-65
2022/12/13 08:38:55;;;;;;;21.00;10.38;;;;;;;1.08;55.59;100763.02;1720685;82;28361;-65
2022/12/13 08:41:19;;;;;;;22.27;10.43;;;;;;;1.87;55.73;100763.03;1719636;83;26324;-64
2022/12/13 08:43:47;;;;;;;17.80;8.98;;;;;;;2.06;54.40;100762.91;1720012;83;25707;-64
2022/12/13 08:46:14;;;;;;;10.82;7.67;;;;;;;2.63;52.56;100762.97;1720376;83;25769;-65
2022/12/13 08:48:41;;;;;;;15.90;8.50;;;;;;;3.12;49.06;100775.28;1720287;82;25784;-65
2022/12/13 08:51:11;;;;;;;15.58;8.70;;;;;;;3.38;48.01;100763.11;1720199;83;27597;-65
2022/12/13 08:53:38;;;;;;;22.37;8.95;;;;;;;3.70;48.14;100769.67;1695767;83;26003;-65
2022/12/13 08:56:10;;;;;;;9.73;6.70;;;;;;;4.33;49.88;100755.65;1709399;83;25814;-65
2022/12/13 08:58:39;;;;;;;10.18;6.80;;;;;;;5.09;48.46;100749.94;1709444;83;25839;-65
2022/12/13 09:01:07;;;;;;;9.70;6.90;;;;;;;5.54;48.22;100746.97;1709301;83;25762;-65
2022/12/13 09:03:36;;;;;;;12.13;7.15;;;;;;;5.98;48.05;100754.20;1689886;83;27595;-65
2022/12/13 09:06:12;;;;;;;12.70;7.70;;;;;;;6.35;48.88;100754.31;1699668;84;25548;-66
2022/12/13 09:08:40;;;;;;;12.07;7.67;;;;;;;6.94;45.01;100745.59;1699753;84;26048;-65
2022/12/13 09:11:09;;;;;;;9.85;6.70;;;;;;;7.11;46.74;100755.05;1716432;83;25877;-66
2022/12/13 09:13:38;;;;;;;11.08;7.20;;;;;;;7.43;45.21;100751.77;1716221;82;25756;-66
2022/12/13 09:16:14;;;;;;;10.03;7.47;;;;;;;7.66;45.01;100761.23;1716792;82;27458;-66
2022/12/13 09:18:41;;;;;;;9.50;7.00;;;;;;;7.87;43.79;100757.84;1716933;82;25744;-65
2022/12/13 09:21:13;;;;;;;13.15;8.25;;;;;;;7.89;43.85;100759.92;1716523;83;25729;-65
2022/12/13 09:23:41;;;;;;;16.10;8.40;;;;;;;8.17;45.04;100756.42;1717005;83;25759;-65
2022/12/13 09:26:12;;;;;;;12.37;7.90;;;;;;;8.45;41.70;100755.08;1711353;83;25793;-65
2022/12/13 09:28:40;;;;;;;18.70;11.40;;;;;;;8.29;41.88;100758.15;1710278;82;27521;-65
2022/12/13 09:31:14;;;;;;;23.18;12.53;;;;;;;7.88;44.78;100760.42;1709637;83;25780;-65
2022/12/13 09:33:41;;;;;;;19.42;11.40;;;;;;;7.49;44.62;100763.34;1719245;81;25792;-66
2022/12/13 09:36:12;;;;;;;16.48;9.70;;;;;;;6.95;44.42;100771.88;1737896;82;25788;-65
2022/12/13 09:38:40;;;;;;;14.00;9.53;;;;;;;6.17;43.89;100770.68;1738677;81;25548;-64
2022/12/13 09:41:21;;;;;;;16.05;9.25;;;;;;;5.66;45.91;100766.63;1738628;81;28125;-64
2022/12/13 09:43:52;;;;;;;17.30;9.75;;;;;;;5.14;46.31;100773.17;1739063;81;25889;-64
2022/12/13 09:46:30;;;;;;;14.70;9.38;;;;;;;4.65;47.91;100770.55;1738354;82;25729;-64
2022/12/13 09:48:59;;;;;;;16.82;10.05;;;;;;;4.35;48.73;100777.69;1725831;82;25744;-64
2022/12/13 09:51:26;;;;;;;18.77;11.05;;;;;;;3.82;49.49;100784.50;1731611;82;25498;-64
2022/12/13 09:54:21;;;;;;;20.55;10.72;;;;;;;3.50;50.61;100792.60;1723512;82;26413;-64
2022/12/13 09:56:50;;;;;;;26.33;12.15;;;;;;;3.03;51.09;100792.59;1678021;84;25846;-64
2022/12/13 09:59:28;;;;;;;23.20;13.35;;;;;;;2.71;51.81;100787.30;1715179;82;25764;-64
2022/12/13 10:01:56;;;;;;;23.67;11.28;;;;;;;2.36;52.46;100794.07;1714485;82;25845;-64
2022/12/13 10:04:23;;;;;;;18.98;10.70;;;;;;;2.00;53.57;100799.06;1678813;84;25801;-64
2022/12/13 10:06:54;;;;;;;16.02;9.93;;;;;;;1.82;55.28;100795.56;1713947;82;27645;-64
2022/12/13 10:09:22;;;;;;;15.58;9.73;;;;;;;1.50;56.12;100798.08;1677893;85;25770;-64
2022/12/13 10:11:52;;;;;;;16.48;10.72;;;;;;;1.29;56.78;100798.20;1714286;82;25805;-64
2022/12/13 10:14:38;;;;;;;16.55;10.55;;;;;;;1.14;57.16;100800.29;1714060;83;25925;-64
2022/12/13 10:17:08;;;;;;;17.07;11.28;;;;;;;1.04;58.32;100799.86;1714893;82;25797;-64
2022/12/13 10:19:40;;;;;;;19.60;11.65;;;;;;;1.13;58.47;100791.94;1678165;84;27444;-65
2022/12/13 10:22:21;;;;;;;27.77;10.95;;;;;;;1.18;58.89;100793.44;1678198;84;25726;-64
2022/12/13 10:25:04;;;;;;;25.08;11.28;;;;;;;1.06;59.26;100790.05;1717053;83;25560;-64
2022/12/13 10:27:41;;;;;;;17.67;10.50;;;;;;;0.84;59.79;100798.17;1727177;83;26123;-64
2022/12/13 10:30:24;;;;;;;18.42;10.63;;;;;;;0.75;60.24;100779.14;1727525;83;25741;-63
2022/12/13 10:33:04;;;;;;;22.27;12.35;;;;;;;0.62;61.13;100784.16;1731011;82;27479;-64
2022/12/13 10:35:38;;;;;;;21.40;11.73;;;;;;;0.59;61.65;100789.59;1691763;83;25772;-65
2022/12/13 10:38:17;;;;;;;19.50;11.48;;;;;;;0.53;62.30;100786.39;1670203;84;25582;-64
2022/12/13 10:40:45;;;;;;;23.22;11.53;;;;;;;0.52;62.43;100789.48;1678852;84;26186;-63
2022/12/13 10:43:26;;;;;;;20.30;11.18;;;;;;;0.50;62.41;100788.69;1691317;84;25811;-64
2022/12/13 10:46:00;;;;;;;24.07;11.83;;;;;;;0.42;62.67;100785.09;1678768;84;27636;-64
2022/12/13 10:48:38;;;;;;;19.02;11.08;;;;;;;0.41;63.03;100782.05;1692542;83;25822;-64
2022/12/13 10:51:11;;;;;;;22.73;11.50;;;;;;;0.50;63.32;100786.05;1691442;84;25816;-64
2022/12/13 10:53:43;;;;;;;21.47;12.67;;;;;;;0.65;63.37;100792.90;1689521;84;26455;-64
2022/12/13 10:56:10;;;;;;;23.92;11.55;;;;;;;1.24;62.67;100777.22;1720017;83;25759;-64
2022/12/13 10:58:45;;;;;;;23.55;12.68;;;;;;;1.56;61.75;100779.20;1702024;83;27489;-64
2022/12/13 11:01:22;;;;;;;19.55;11.22;;;;;;;1.58;61.38;100776.45;1695193;83;25728;-64
2022/12/13 11:04:03;;;;;;;24.52;12.00;;;;;;;1.49;61.13;100783.94;1705100;83;25892;-64
2022/12/13 11:06:51;;;;;;;21.27;12.20;;;;;;;1.32;61.09;100773.33;1697618;83;25774;-63
2022/12/13 11:09:31;;;;;;;24.77;13.75;;;;;;;1.20;61.46;100783.63;1694733;83;25503;-63
2022/12/13 11:12:24;;;;;;;21.00;12.28;;;;;;;1.15;61.96;100786.11;1716594;82;25727;-64
2022/12/13 11:15:02;;;;;;;25.57;12.82;;;;;;;1.30;62.06;100781.84;1716886;83;25809;-64
2022/12/13 11:17:52;;;;;;;22.98;12.18;;;;;;;1.31;61.99;100777.78;1716501;83;25483;-64
2022/12/13 11:20:26;;;;;;;21.45;11.45;;;;;;;1.17;62.26;100785.54;1717156;82;25702;-64
2022/12/13 11:23:28;;;;;;;22.80;12.35;;;;;;;1.10;62.12;100779.70;1691516;83;25744;-64
2022/12/13 11:26:00;;;;;;;18.45;10.68;;;;;;;1.09;62.67;100779.31;1712278;82;27060;-64
2022/12/13 11:28:35;;;;;;;25.00;11.75;;;;;;;1.12;62.85;100780.47;1715210;82;25833;-63
2022/12/13 11:31:37;;;;;;;22.37;10.65;;;;;;;1.07;62.92;100790.45;1714208;82;25512;-64
2022/12/13 11:34:13;;;;;;;21.20;12.10;;;;;;;0.97;63.59;100785.20;1719093;81;25860;-64
2022/12/13 11:37:02;;;;;;;20.60;12.25;;;;;;;0.91;64.21;100783.25;1721105;81;25744;-64
2022/12/13 11:39:34;;;;;;;19.27;10.72;;;;;;;0.90;64.89;100788.59;1694233;84;27622;-64